Time;durP1;ratioP1;P1;durP2;ratioP2;P2;SDS_P1;SDS_P2;PMS_P1;PMS_P2;Temp;Humidity;BMP_temperature;BMP_pressure;BME280_temperature;BME280_humidity;BME280_pressure;Samples;Min_cycle;Max_cycle;Signal;HPM_P1;HPM_P2
2021/05/03 00:01:54;;;;;;;3.33;3.03;;;;;;;10.38;67.72;101039.75;5032024;28;20111;-83
2021/05/03 00:04:21;;;;;;;3.88;3.15;;;;;;;10.31;68.14;101037.47;5033316;28;20029;-82
2021/05/03 00:06:46;;;;;;;3.38;2.45;;;;;;;10.31;67.59;101034.84;5032683;28;20476;-83
2021/05/03 00:09:12;;;;;;;2.95;2.60;;;;;;;10.32;67.22;101038.31;5028317;28;20048;-82
2021/05/03 00:11:37;;;;;;;5.28;3.55;;;;;;;10.22;68.21;101037.09;5032077;28;20487;-83
2021/05/03 00:14:03;;;;;;;3.55;2.58;;;;;;;10.27;67.05;101040.31;5031920;28;20029;-83
2021/05/03 00:16:29;;;;;;;3.83;3.42;;;;;;;10.25;67.41;101036.94;5031990;28;20037;-83
2021/05/03 00:18:54;;;;;;;4.18;3.78;;;;;;;10.24;68.67;101030.81;5014215;28;20075;-81
2021/05/03 00:21:20;;;;;;;4.88;3.38;;;;;;;10.28;68.56;101031.50;5031765;28;20112;-83
2021/05/03 00:23:45;;;;;;;7.15;3.30;;;;;;;10.34;68.01;101025.09;5021007;28;20037;-83
2021/05/03 00:26:11;;;;;;;3.65;3.35;;;;;;;10.34;68.34;101025.09;5012002;28;20018;-83
2021/05/03 00:28:41;;;;;;;10.82;3.20;;;;;;;10.31;68.16;101016.47;5012071;28;20026;-83
2021/05/03 00:31:06;;;;;;;3.90;3.20;;;;;;;10.32;68.15;101025.19;5012273;28;20030;-83
2021/05/03 00:33:32;;;;;;;4.00;3.38;;;;;;;10.28;68.27;101015.75;4994351;28;20033;-83
2021/05/03 00:35:57;;;;;;;5.15;3.53;;;;;;;10.33;67.84;101016.38;5012177;28;20041;-82
2021/05/03 00:38:23;;;;;;;4.43;3.70;;;;;;;10.35;67.79;101005.78;5012066;28;20096;-82
2021/05/03 00:40:49;;;;;;;4.07;3.38;;;;;;;10.29;68.38;101012.22;5011856;28;20079;-82
2021/05/03 00:43:20;;;;;;;5.10;3.90;;;;;;;10.26;68.18;101004.50;5011915;28;20050;-83
2021/05/03 00:45:46;;;;;;;3.50;3.20;;;;;;;10.23;68.05;101005.53;5011788;28;20469;-82
2021/05/03 00:48:12;;;;;;;3.42;3.13;;;;;;;10.19;68.23;101003.16;5026054;28;20033;-82
2021/05/03 00:50:37;;;;;;;4.25;3.53;;;;;;;10.08;67.78;101006.38;5031583;28;20024;-83
2021/05/03 00:53:04;;;;;;;4.90;3.20;;;;;;;10.00;67.83;101000.72;5014310;28;20057;-82
2021/05/03 00:55:30;;;;;;;8.52;3.45;;;;;;;10.01;68.21;101002.41;5032335;28;20018;-81
2021/05/03 00:57:55;;;;;;;3.85;3.20;;;;;;;9.96;68.02;101001.84;5031582;28;20528;-82
2021/05/03 01:00:23;;;;;;;5.50;3.40;;;;;;;9.96;67.80;101001.84;5031781;28;20037;-83
2021/05/03 01:02:50;;;;;;;4.30;3.60;;;;;;;9.88;67.89;100999.63;5020569;28;20092;-82
2021/05/03 01:05:16;;;;;;;3.85;2.90;;;;;;;9.85;68.18;100992.78;5031783;28;20053;-83
2021/05/03 01:07:41;;;;;;;3.53;2.97;;;;;;;9.68;67.71;100995.50;5035260;28;20112;-82
2021/05/03 01:10:07;;;;;;;4.15;3.45;;;;;;;9.65;69.08;100996.50;5017510;28;20494;-82
2021/05/03 01:12:32;;;;;;;3.40;3.10;;;;;;;9.63;68.25;100987.03;5035221;28;20029;-82
2021/05/03 01:14:58;;;;;;;4.10;3.67;;;;;;;9.61;68.20;100997.59;5035365;28;20036;-82
2021/05/03 01:17:34;;;;;;;4.20;3.33;;;;;;;9.61;69.04;100996.75;5035119;28;20037;-83
2021/05/03 01:20:30;;;;;;;3.33;3.03;;;;;;;9.61;68.74;100994.97;5001395;28;20511;-82
2021/05/03 01:22:58;;;;;;;3.83;3.35;;;;;;;9.60;68.23;100989.84;5013513;28;20050;-83
2021/05/03 01:25:37;;;;;;;5.10;3.58;;;;;;;9.62;68.64;100980.94;5015081;28;20022;-83
2021/05/03 01:28:04;;;;;;;7.25;3.65;;;;;;;9.53;69.29;100987.50;5015196;28;20026;-82
2021/05/03 01:30:39;;;;;;;4.68;3.78;;;;;;;9.60;69.35;100974.94;5015231;28;20077;-82
2021/05/03 01:33:06;;;;;;;4.00;3.22;;;;;;;9.59;69.06;100972.41;5028876;28;20025;-83
2021/05/03 01:35:32;;;;;;;3.78;3.47;;;;;;;9.64;69.41;100973.84;5034750;28;20037;-82
2021/05/03 01:37:59;;;;;;;5.35;3.85;;;;;;;9.63;69.27;100977.38;5034747;28;20067;-83
2021/05/03 01:40:27;;;;;;;3.50;3.20;;;;;;;9.68;69.00;100979.78;5032918;28;20021;-83
2021/05/03 01:42:53;;;;;;;3.47;3.17;;;;;;;9.76;69.36;100967.06;5034776;28;20388;-82
2021/05/03 01:45:22;;;;;;;4.82;3.75;;;;;;;9.65;70.79;100965.03;5034516;28;20036;-82
2021/05/03 01:47:49;;;;;;;12.38;6.43;;;;;;;9.78;69.70;100978.31;5045499;23;20009;-90
2021/05/03 01:50:15;;;;;;;5.45;3.40;;;;;;;9.71;69.35;100969.94;5014704;28;20065;-90
2021/05/03 01:52:41;;;;;;;4.25;3.67;;;;;;;9.69;70.09;100963.09;5014731;28;20033;-90
2021/05/03 01:55:07;;;;;;;3.58;3.17;;;;;;;9.75;69.76;100960.13;5014657;28;20038;-90
2021/05/03 01:57:32;;;;;;;3.72;3.25;;;;;;;9.72;68.86;100968.19;5016234;28;20040;-90
2021/05/03 01:59:58;;;;;;;5.22;4.25;;;;;;;9.48;70.19;100955.47;5034572;28;20048;-91
2021/05/03 02:02:23;;;;;;;9.68;4.10;;;;;;;9.72;69.87;100957.69;5034328;28;20029;-91
2021/05/03 02:04:49;;;;;;;5.05;4.50;;;;;;;9.85;70.14;100963.94;5013948;28;20025;-90
2021/05/03 02:07:16;;;;;;;4.80;3.53;;;;;;;9.69;69.53;100957.84;5018122;28;20030;-90
2021/05/03 02:09:43;;;;;;;6.07;4.15;;;;;;;9.81;69.44;100959.78;4996852;28;20457;-90
2021/05/03 02:12:08;;;;;;;4.93;3.33;;;;;;;9.81;69.79;100957.16;5014398;28;20480;-90
2021/05/03 02:14:35;;;;;;;9.52;4.15;;;;;;;9.95;69.99;100945.03;5014284;28;20056;-92
2021/05/03 02:17:01;;;;;;;4.22;3.83;;;;;;;10.05;69.05;100946.22;5014385;28;20030;-90
2021/05/03 02:19:26;;;;;;;5.38;4.35;;;;;;;10.15;68.89;100944.78;4996586;28;20173;-89
2021/05/03 02:21:51;;;;;;;5.50;4.03;;;;;;;10.08;69.11;100940.81;5028787;28;20120;-89
2021/05/03 02:24:17;;;;;;;4.75;3.75;;;;;;;10.12;68.31;100942.31;5016641;28;20025;-90
2021/05/03 02:26:42;;;;;;;6.68;4.47;;;;;;;10.18;68.59;100941.94;5015947;28;20025;-90
2021/05/03 02:29:07;;;;;;;10.45;5.45;;;;;;;10.18;68.58;100943.75;5033700;28;20052;-91
2021/05/03 02:31:33;;;;;;;7.72;4.72;;;;;;;10.20;68.33;100940.09;5016097;28;20074;-90
2021/05/03 02:33:58;;;;;;;7.75;5.47;;;;;;;10.15;68.86;100936.91;5015910;28;20018;-91
2021/05/03 02:36:24;;;;;;;5.20;4.65;;;;;;;10.19;69.23;100935.78;5003480;28;20040;-91
2021/05/03 02:38:49;;;;;;;6.47;4.55;;;;;;;10.26;68.56;100936.25;5013858;28;20034;-91
2021/05/03 02:41:15;;;;;;;6.32;4.65;;;;;;;10.24;68.46;100931.09;4996190;28;20465;-90
2021/05/03 02:43:41;;;;;;;5.20;4.45;;;;;;;10.27;68.97;100930.09;5014067;28;20407;-91
2021/05/03 02:46:06;;;;;;;5.00;4.18;;;;;;;10.25;69.14;100924.94;5013546;28;20022;-91
2021/05/03 02:48:32;;;;;;;5.88;4.97;;;;;;;10.08;69.03;100925.06;5014485;28;20049;-90
2021/05/03 02:50:57;;;;;;;8.45;5.55;;;;;;;10.28;69.12;100926.53;5014550;28;20036;-91
2021/05/03 02:53:23;;;;;;;5.30;4.72;;;;;;;10.25;69.08;100930.19;4995890;28;20030;-91
2021/05/03 02:55:48;;;;;;;8.20;5.68;;;;;;;10.18;69.21;100931.47;5017188;28;20034;-91
2021/05/03 02:58:13;;;;;;;5.80;4.60;;;;;;;10.29;68.82;100934.31;5013399;28;20029;-91
2021/05/03 03:00:39;;;;;;;8.48;5.20;;;;;;;10.34;69.22;100927.97;4995863;28;20056;-91
2021/05/03 03:03:04;;;;;;;5.88;4.40;;;;;;;10.31;68.89;100927.22;4995923;28;20472;-90
2021/05/03 03:05:30;;;;;;;5.25;3.92;;;;;;;10.34;68.60;100925.34;5013328;28;20530;-91
2021/05/03 03:08:02;;;;;;;6.15;4.63;;;;;;;10.30;68.53;100922.06;5013143;28;20030;-91
2021/05/03 03:10:28;;;;;;;;;;;;;;;10.29;68.60;100913.31;5019404;28;20091;-91
2021/05/03 03:12:53;;;;;;;9.30;5.18;;;;;;;10.18;69.04;100910.47;5022846;28;19921;-91
2021/05/03 03:15:19;;;;;;;6.22;4.22;;;;;;;10.29;68.66;100909.84;4995524;28;20053;-91
2021/05/03 03:17:46;;;;;;;6.53;5.25;;;;;;;10.42;68.70;100915.25;5013229;28;20033;-91
2021/05/03 03:20:14;;;;;;;6.05;4.13;;;;;;;10.39;68.05;100907.56;4995323;28;20061;-90
2021/05/03 03:22:39;;;;;;;5.75;5.05;;;;;;;10.32;68.54;100907.91;5013020;28;20188;-90
2021/05/03 03:25:06;;;;;;;6.47;4.90;;;;;;;10.30;68.30;100911.56;5012608;28;20026;-89
2021/05/03 03:27:32;;;;;;;5.35;4.28;;;;;;;10.34;68.68;100912.22;5021409;28;20075;-90
2021/05/03 03:29:57;;;;;;;5.53;4.68;;;;;;;10.27;69.55;100903.84;5032532;28;20041;-90
2021/05/03 03:32:23;;;;;;;5.72;4.80;;;;;;;10.19;69.29;100912.16;5032682;28;20029;-89
2021/05/03 03:34:48;;;;;;;6.13;5.35;;;;;;;10.12;69.93;100908.19;5032568;28;20025;-90
2021/05/03 03:37:14;;;;;;;5.20;4.65;;;;;;;10.26;69.05;100902.97;5032497;28;20029;-90
2021/05/03 03:39:39;;;;;;;5.43;4.70;;;;;;;10.39;68.28;100894.44;5032388;28;20033;-90
2021/05/03 03:42:05;;;;;;;6.88;5.07;;;;;;;10.37;68.32;100904.16;5029229;28;20037;-91
2021/05/03 03:44:30;;;;;;;9.35;4.72;;;;;;;10.15;69.04;100894.91;5032313;28;20030;-91
2021/05/03 03:46:56;;;;;;;5.75;4.90;;;;;;;10.19;68.97;100893.81;5032287;28;20044;-91
2021/05/03 03:49:22;;;;;;;5.65;4.43;;;;;;;10.15;69.75;100884.41;5032638;28;20384;-91
2021/05/03 03:51:47;;;;;;;5.88;4.10;;;;;;;10.26;68.96;100887.25;5032299;28;20104;-91
2021/05/03 03:54:13;;;;;;;5.55;4.72;;;;;;;10.25;69.16;100880.31;5032311;28;20372;-91
2021/05/03 03:56:38;;;;;;;6.68;4.93;;;;;;;10.11;69.15;100881.13;5014336;28;20037;-91
2021/05/03 03:59:06;;;;;;;6.55;4.85;;;;;;;10.13;69.52;100879.25;5012344;28;20026;-91
2021/05/03 04:01:31;;;;;;;4.93;4.43;;;;;;;10.11;70.11;100867.13;5013454;28;20037;-91
2021/05/03 04:04:02;;;;;;;6.55;5.07;;;;;;;10.19;69.20;100875.44;5012463;28;20018;-91
2021/05/03 04:09:08;;;;;;;9.00;5.03;;;;;;;10.31;68.32;100864.22;5012145;28;20040;-91
2021/05/03 04:21:04;;;;;;;6.88;5.10;;;;;;;10.34;68.40;100864.97;5012770;28;20100;-91
2021/05/03 04:25:06;;;;;;;7.07;5.07;;;;;;;10.14;69.29;100869.59;5014077;28;20295;-91
2021/05/03 04:27:31;;;;;;;7.07;4.50;;;;;;;10.11;69.52;100864.50;5014269;28;20534;-91
2021/05/03 04:29:56;;;;;;;6.43;5.10;;;;;;;10.01;70.59;100864.25;5014150;28;20029;-91
2021/05/03 04:32:22;;;;;;;5.40;4.88;;;;;;;10.03;70.12;100854.50;5020165;28;20032;-88
2021/05/03 04:34:47;;;;;;;5.70;5.00;;;;;;;10.11;69.69;100857.50;5032603;28;20494;-89
2021/05/03 04:37:12;;;;;;;6.57;5.20;;;;;;;10.04;69.46;100850.09;5048217;28;20447;-91
2021/05/03 04:39:38;;;;;;;6.10;5.07;;;;;;;9.99;70.29;100846.88;5057869;28;20025;-90
2021/05/03 04:42:03;;;;;;;5.75;4.75;;;;;;;10.15;69.45;100845.06;5057150;28;20037;-89
2021/05/03 04:44:29;;;;;;;8.63;4.82;;;;;;;10.15;69.57;100841.56;5056398;28;20021;-88
2021/05/03 04:46:54;;;;;;;5.90;4.75;;;;;;;10.13;69.44;100842.53;5056725;28;20048;-87
2021/05/03 04:49:20;;;;;;;6.40;5.32;;;;;;;10.21;68.75;100836.81;5048871;28;20034;-90
2021/05/03 04:51:45;;;;;;;6.18;5.13;;;;;;;10.22;68.95;100840.28;5045383;28;20038;-89
2021/05/03 04:54:10;;;;;;;6.82;4.78;;;;;;;10.22;69.30;100835.03;5050634;28;20047;-88
2021/05/03 04:56:36;;;;;;;5.57;4.68;;;;;;;10.27;68.89;100835.63;5040698;28;20041;-88
2021/05/03 04:59:01;;;;;;;5.20;4.45;;;;;;;10.31;68.91;100832.72;5036448;28;20057;-88
2021/05/03 05:01:26;;;;;;;5.70;4.32;;;;;;;10.37;68.83;100833.28;5036376;28;20026;-88
2021/05/03 05:03:52;;;;;;;4.72;4.15;;;;;;;10.38;68.43;100827.09;5037334;28;20014;-87
2021/05/03 05:06:17;;;;;;;4.80;4.22;;;;;;;10.37;68.49;100817.53;5030689;28;20030;-90
2021/05/03 05:08:42;;;;;;;4.88;4.05;;;;;;;10.50;68.36;100823.72;5036142;28;20069;-89
2021/05/03 05:11:08;;;;;;;8.02;4.70;;;;;;;10.46;68.45;100815.19;5036820;28;20022;-88
2021/05/03 05:13:33;;;;;;;5.82;4.60;;;;;;;10.53;68.39;100813.06;5018957;28;20052;-89
2021/05/03 05:15:58;;;;;;;6.25;4.32;;;;;;;10.51;67.91;100812.31;5036913;28;20029;-88
2021/05/03 05:18:24;;;;;;;6.38;4.82;;;;;;;10.62;67.98;100809.84;5019115;28;20069;-88
2021/05/03 05:20:50;;;;;;;5.07;4.38;;;;;;;10.60;67.65;100806.47;5022192;28;20026;-91
2021/05/03 05:23:15;;;;;;;7.75;4.35;;;;;;;10.58;68.07;100797.84;5021965;28;20457;-91
2021/05/03 05:25:41;;;;;;;8.15;4.80;;;;;;;10.71;66.98;100811.09;5016425;28;20018;-90
2021/05/03 05:28:06;;;;;;;5.93;5.10;;;;;;;10.68;67.21;100806.88;5016096;28;20018;-90
2021/05/03 05:30:31;;;;;;;6.70;4.88;;;;;;;10.78;67.27;100803.66;5015893;28;20026;-91
2021/05/03 05:32:57;;;;;;;4.40;3.85;;;;;;;10.86;66.85;100804.88;5015954;28;20439;-90
2021/05/03 05:35:22;;;;;;;5.03;4.32;;;;;;;10.87;65.94;100803.09;5014732;28;20388;-90
2021/05/03 05:37:48;;;;;;;4.82;4.32;;;;;;;10.85;66.92;100804.97;5019816;28;20418;-89
2021/05/03 05:40:13;;;;;;;7.32;4.10;;;;;;;11.02;66.66;100807.38;5035631;28;20030;-91
2021/05/03 05:42:38;;;;;;;5.97;5.00;;;;;;;10.98;67.77;100807.66;5013431;28;20033;-91
2021/05/03 05:45:04;;;;;;;5.35;4.47;;;;;;;11.14;66.37;100797.88;5030947;28;20495;-92
2021/05/03 05:47:30;;;;;;;7.72;4.70;;;;;;;11.08;65.98;100790.38;5015418;28;20038;-92
2021/05/03 05:49:55;;;;;;;6.72;4.30;;;;;;;11.10;66.34;100793.75;5015489;28;20121;-91
2021/05/03 05:52:21;;;;;;;6.25;4.03;;;;;;;11.26;65.66;100793.59;5015382;28;20053;-91
2021/05/03 05:54:46;;;;;;;9.70;4.55;;;;;;;11.40;64.98;100796.19;5015457;28;20038;-91
2021/05/03 05:57:11;;;;;;;6.65;4.10;;;;;;;11.34;65.32;100788.69;5015207;28;20033;-90
2021/05/03 05:59:37;;;;;;;12.73;3.97;;;;;;;11.17;66.05;100787.13;5019590;28;20043;-91
2021/05/03 06:02:02;;;;;;;7.88;3.70;;;;;;;11.28;65.14;100782.03;5034986;28;20033;-91
2021/05/03 06:04:28;;;;;;;5.15;4.18;;;;;;;11.32;65.73;100774.81;5034673;28;20084;-89
2021/05/03 06:06:54;;;;;;;3.92;3.50;;;;;;;11.49;65.16;100777.19;5034729;28;20415;-90
2021/05/03 06:09:19;;;;;;;5.10;3.92;;;;;;;11.54;64.96;100768.97;5014801;28;20088;-91
2021/05/03 06:11:45;;;;;;;4.50;3.58;;;;;;;11.60;64.40;100763.31;5014117;28;20018;-90
2021/05/03 06:14:10;;;;;;;4.07;3.38;;;;;;;11.71;63.56;100768.69;5018105;28;20583;-91
2021/05/03 06:16:37;;;;;;;4.60;3.63;;;;;;;11.47;64.84;100772.94;5034206;28;20022;-91
2021/05/03 06:19:03;;;;;;;3.95;3.53;;;;;;;11.61;64.40;100769.41;5032710;28;20030;-92
2021/05/03 06:21:28;;;;;;;5.25;3.83;;;;;;;11.76;64.22;100762.28;5034340;28;20048;-90
2021/05/03 06:23:54;;;;;;;3.70;3.40;;;;;;;11.87;63.25;100767.69;5034111;28;20036;-91
2021/05/03 06:26:19;;;;;;;5.53;4.95;;;;;;;11.76;65.40;100760.50;5033946;28;20061;-91
2021/05/03 06:28:45;;;;;;;4.25;3.78;;;;;;;11.88;63.71;100753.56;5032409;28;20025;-91
2021/05/03 06:31:10;;;;;;;3.90;3.50;;;;;;;12.02;62.83;100764.00;5018905;28;20554;-91
2021/05/03 06:33:36;;;;;;;3.88;3.58;;;;;;;11.83;64.49;100759.16;5034024;28;20017;-91
2021/05/03 06:36:02;;;;;;;3.75;3.35;;;;;;;11.81;65.08;100757.53;5033886;28;20117;-91
2021/05/03 06:38:27;;;;;;;4.15;3.63;;;;;;;11.98;64.01;100757.28;5033613;28;20027;-91
2021/05/03 06:40:52;;;;;;;3.25;2.95;;;;;;;12.19;63.32;100765.50;5033703;28;20449;-91
2021/05/03 06:43:18;;;;;;;6.65;4.30;;;;;;;12.28;62.77;100762.25;5033870;28;20033;-91
2021/05/03 06:45:44;;;;;;;4.60;3.65;;;;;;;11.84;64.67;100758.19;5018233;28;20064;-91
2021/05/03 06:48:10;;;;;;;4.80;3.63;;;;;;;12.13;64.15;100759.81;5014151;28;20129;-92
2021/05/03 06:50:43;;;;;;;6.25;4.05;;;;;;;12.12;63.97;100758.97;5013758;28;20113;-93
2021/05/03 06:53:09;;;;;;;4.28;3.55;;;;;;;12.26;63.22;100748.34;4996168;28;20068;-92
2021/05/03 06:55:34;;;;;;;3.83;3.40;;;;;;;12.26;62.73;100742.22;5014068;28;20057;-92
2021/05/03 06:58:00;;;;;;;5.75;4.50;;;;;;;12.33;62.57;100738.22;4995951;28;20083;-92
2021/05/03 07:00:25;;;;;;;4.35;3.65;;;;;;;12.39;62.95;100740.41;5015160;28;20018;-92
2021/05/03 07:02:51;;;;;;;4.93;3.92;;;;;;;12.25;63.91;100751.06;5013677;28;20524;-93
2021/05/03 07:05:17;;;;;;;5.40;4.05;;;;;;;12.52;63.45;100745.66;5013591;28;20021;-92
2021/05/03 07:07:42;;;;;;;4.38;3.97;;;;;;;12.58;63.51;100744.38;5017849;28;20036;-92
2021/05/03 07:10:08;;;;;;;5.75;4.10;;;;;;;12.59;62.87;100739.00;5033129;28;20056;-92
2021/05/03 07:12:39;;;;;;;6.57;3.53;;;;;;;12.76;62.25;100734.34;5033005;28;20395;-92
2021/05/03 07:15:05;;;;;;;7.30;4.60;;;;;;;12.36;64.28;100732.75;5015955;28;20041;-92
2021/05/03 07:17:30;;;;;;;4.22;3.78;;;;;;;12.05;64.89;100737.50;5032701;28;20048;-90
2021/05/03 07:20:00;;;;;;;4.25;3.60;;;;;;;12.12;65.11;100731.81;5020489;28;20415;-91
2021/05/03 07:22:25;;;;;;;6.50;3.75;;;;;;;11.98;66.78;100730.97;5010561;28;20038;-91
2021/05/03 07:24:51;;;;;;;4.25;3.85;;;;;;;12.10;66.68;100726.63;5013072;28;20026;-91
2021/05/03 07:27:17;;;;;;;3.50;3.20;;;;;;;12.24;65.76;100728.31;5013328;28;20127;-91
2021/05/03 07:29:42;;;;;;;4.50;3.17;;;;;;;12.20;65.69;100726.84;5012302;28;20484;-92
2021/05/03 07:32:07;;;;;;;4.00;3.60;;;;;;;12.35;65.11;100709.16;5012410;28;20030;-92
2021/05/03 07:34:33;;;;;;;4.53;3.47;;;;;;;12.13;67.70;100710.66;4995151;28;20038;-92
2021/05/03 07:36:58;;;;;;;3.40;3.10;;;;;;;12.46;67.11;100707.44;5011834;28;20022;-92
2021/05/03 07:39:24;;;;;;;4.25;3.70;;;;;;;12.30;66.65;100697.16;5012059;28;20022;-92
2021/05/03 07:41:49;;;;;;;6.22;3.00;;;;;;;12.17;67.66;100677.91;5011214;28;20127;-92
2021/05/03 07:44:14;;;;;;;6.18;3.40;;;;;;;12.64;66.08;100678.94;5012313;28;20026;-92
2021/05/03 07:46:40;;;;;;;4.55;3.92;;;;;;;12.67;65.18;100667.31;5011945;28;20037;-92
2021/05/03 07:49:06;;;;;;;8.75;3.20;;;;;;;12.60;66.68;100666.06;5013110;28;20113;-93
2021/05/03 07:51:33;;;;;;;6.88;3.28;;;;;;;12.69;66.29;100666.25;5011480;28;20042;-91
2021/05/03 07:54:02;;;;;;;4.25;3.17;;;;;;;13.12;65.39;100657.00;5012084;28;20495;-92
2021/05/03 07:56:31;;;;;;;3.80;3.20;;;;;;;13.77;63.12;100665.31;5012265;28;20084;-93
2021/05/03 07:58:56;;;;;;;4.55;3.22;;;;;;;14.22;60.40;100655.59;5012535;28;20077;-92
2021/05/03 08:01:22;;;;;;;5.25;2.97;;;;;;;13.93;59.63;100659.69;5018829;28;20030;-91
2021/05/03 08:03:47;;;;;;;5.43;3.60;;;;;;;14.71;56.84;100644.72;5012437;28;20495;-92
2021/05/03 08:06:14;;;;;;;3.88;2.40;;;;;;;14.86;57.50;100641.66;4989512;28;20026;-92
2021/05/03 08:08:46;;;;;;;4.43;2.72;;;;;;;15.21;55.76;100645.84;5012293;28;20484;-92
2021/05/03 08:11:13;;;;;;;3.53;1.98;;;;;;;15.23;55.12;100637.78;5011599;28;20434;-93
2021/05/03 08:13:40;;;;;;;2.40;2.15;;;;;;;14.98;55.05;100633.69;5012535;28;20018;-92
2021/05/03 08:16:09;;;;;;;2.97;2.30;;;;;;;14.23;57.75;100620.28;5013273;28;20080;-93
2021/05/03 08:18:34;;;;;;;2.97;2.33;;;;;;;14.54;57.68;100620.47;5011705;28;20105;-92
2021/05/03 08:21:00;;;;;;;2.50;2.03;;;;;;;15.25;54.64;100614.69;5011031;28;20148;-92
2021/05/03 08:23:26;;;;;;;2.28;1.67;;;;;;;14.51;55.40;100611.97;4993553;28;20026;-94
2021/05/03 08:25:54;;;;;;;2.55;1.70;;;;;;;14.86;53.09;100609.94;5012134;28;20554;-92
2021/05/03 08:28:19;;;;;;;3.85;1.88;;;;;;;15.16;52.23;100600.41;5012325;28;20137;-92
2021/05/03 08:30:46;;;;;;;5.60;1.98;;;;;;;15.25;53.58;100597.00;5012400;28;20480;-92
2021/05/03 08:33:13;;;;;;;5.00;1.77;;;;;;;15.56;51.52;100589.09;5010948;28;20105;-92
2021/05/03 08:35:39;;;;;;;4.45;1.98;;;;;;;15.26;51.30;100577.53;5011030;28;20034;-93
2021/05/03 08:38:04;;;;;;;3.80;1.77;;;;;;;15.65;49.74;100590.09;5010746;28;20045;-91
2021/05/03 08:40:31;;;;;;;3.78;1.50;;;;;;;15.03;50.98;100583.91;5011040;28;20052;-92
2021/05/03 08:42:56;;;;;;;3.15;1.35;;;;;;;14.94;51.23;100585.50;5012089;28;20041;-92
2021/05/03 08:45:23;;;;;;;3.30;1.42;;;;;;;14.99;51.76;100558.69;5012060;28;20025;-93
2021/05/03 08:48:03;;;;;;;1.42;1.30;;;;;;;15.45;47.78;100566.19;5012051;28;20030;-91
2021/05/03 08:53:15;;;;;;;1.10;1.00;;;;;;;17.44;45.79;100532.47;4992141;28;20034;-92
2021/05/03 08:55:41;;;;;;;1.23;0.98;;;;;;;17.38;43.56;100541.00;4992179;28;20019;-92
2021/05/03 08:58:08;;;;;;;2.70;1.77;;;;;;;16.24;45.40;100546.13;4992149;28;20370;-92
2021/05/03 09:00:34;;;;;;;3.42;1.10;;;;;;;16.51;46.03;100540.16;5008040;28;20504;-91
2021/05/03 09:03:00;;;;;;;4.32;1.52;;;;;;;17.11;45.85;100524.03;5002304;28;20121;-93
2021/05/03 09:05:26;;;;;;;3.15;1.33;;;;;;;18.43;42.49;100502.53;5013820;28;20030;-92
2021/05/03 09:07:52;;;;;;;2.40;0.80;;;;;;;17.47;42.75;100508.25;5011176;28;20495;-91
2021/05/03 09:10:21;;;;;;;1.58;0.50;;;;;;;16.23;45.64;100507.34;5011235;28;20107;-92
2021/05/03 09:12:48;;;;;;;5.70;0.95;;;;;;;16.77;45.76;100499.81;5012144;28;20026;-93
2021/05/03 09:15:19;;;;;;;1.05;0.57;;;;;;;16.86;43.47;100509.56;5012008;28;20026;-92
2021/05/03 09:17:45;;;;;;;1.75;0.68;;;;;;;16.21;44.99;100526.03;4994190;28;20026;-93
2021/05/03 09:20:14;;;;;;;3.97;0.80;;;;;;;15.69;45.86;100511.25;5011059;28;20076;-93
2021/05/03 09:25:36;;;;;;;2.53;0.80;;;;;;;14.99;47.94;100488.13;4996081;28;20492;-93
2021/05/03 09:28:26;;;;;;;3.65;0.70;;;;;;;14.79;48.98;100475.75;5008315;28;20550;-95
2021/05/03 09:31:01;;;;;;;2.67;0.82;;;;;;;14.62;50.55;100464.81;5030207;28;20022;-94
2021/05/03 09:33:29;;;;;;;3.67;0.93;;;;;;;15.19;49.72;100467.09;5015775;28;20022;-94
2021/05/03 09:36:09;;;;;;;2.35;0.98;;;;;;;15.05;49.14;100455.03;5014575;28;20030;-93
2021/05/03 09:38:39;;;;;;;2.20;1.02;;;;;;;15.57;48.81;100454.94;5014326;28;20033;-93
2021/05/03 09:41:20;;;;;;;4.50;1.40;;;;;;;16.45;47.79;100466.50;5014957;28;20080;-93
2021/05/03 09:44:05;;;;;;;9.52;1.35;;;;;;;17.77;44.70;100461.16;5015703;28;20030;-94
2021/05/03 09:46:42;;;;;;;2.47;1.23;;;;;;;17.59;44.59;100450.50;5015088;28;20034;-94
2021/05/03 09:49:28;;;;;;;3.60;0.90;;;;;;;16.77;46.88;100438.81;4999042;28;20048;-95
2021/05/03 09:51:59;;;;;;;3.35;0.93;;;;;;;17.43;44.92;100420.13;5009240;28;20029;-93
2021/05/03 09:54:30;;;;;;;3.90;1.33;;;;;;;17.72;44.57;100428.91;5013351;28;20033;-94
2021/05/03 09:57:02;;;;;;;2.95;1.25;;;;;;;17.47;44.57;100420.66;5000860;28;20030;-94
2021/05/03 09:59:41;;;;;;;4.05;1.20;;;;;;;16.94;45.09;100414.25;5015155;28;20034;-93
2021/05/03 10:02:08;;;;;;;5.78;1.40;;;;;;;15.51;48.69;100431.69;4997242;28;20384;-94
2021/05/03 10:04:34;;;;;;;4.35;1.40;;;;;;;15.36;47.74;100421.44;5015031;28;20396;-94
2021/05/03 10:07:00;;;;;;;3.65;1.20;;;;;;;15.43;48.49;100422.59;5014966;28;20030;-94
2021/05/03 10:09:27;;;;;;;2.38;0.90;;;;;;;16.21;47.24;100401.53;5014123;28;20037;-94
2021/05/03 10:11:53;;;;;;;5.57;2.22;;;;;;;16.29;46.62;100403.47;5014791;28;20056;-94
2021/05/03 10:14:20;;;;;;;4.53;1.00;;;;;;;16.18;46.44;100393.84;4997481;28;20083;-93
2021/05/03 10:16:47;;;;;;;5.88;1.77;;;;;;;15.68;47.36;100386.03;5014251;28;20025;-92
2021/05/03 10:19:15;;;;;;;2.85;1.10;;;;;;;15.70;46.88;100392.03;5013830;28;20026;-91
2021/05/03 10:21:44;;;;;;;4.18;1.40;;;;;;;16.17;46.94;100384.25;5013880;28;20030;-93
2021/05/03 10:24:12;;;;;;;4.15;1.25;;;;;;;15.90;47.56;100360.28;5009175;28;20084;-93
2021/05/03 10:26:40;;;;;;;4.05;1.25;;;;;;;15.73;47.67;100356.53;5014893;28;20507;-92
2021/05/03 10:29:05;;;;;;;3.88;1.48;;;;;;;15.27;49.20;100358.81;5014407;28;20384;-93
2021/05/03 10:32:03;;;;;;;2.90;1.30;;;;;;;15.73;48.29;100349.41;5012989;28;20026;-92
2021/05/03 10:34:36;;;;;;;3.75;1.30;;;;;;;15.30;47.95;100332.06;5012549;28;20064;-90
2021/05/03 10:37:02;;;;;;;7.50;1.40;;;;;;;15.21;47.41;100338.19;5015350;28;20022;-94
2021/05/03 10:39:28;;;;;;;3.05;1.25;;;;;;;14.98;49.15;100321.69;5013715;28;20040;-94
2021/05/03 10:42:07;;;;;;;6.03;1.27;;;;;;;15.05;50.17;100326.31;5014216;28;20037;-94
2021/05/03 10:44:36;;;;;;;4.03;1.13;;;;;;;15.58;48.18;100303.97;5014414;28;20111;-94
2021/05/03 10:47:26;;;;;;;4.03;1.63;;;;;;;15.25;48.54;100297.25;5010955;28;20030;-94
2021/05/03 10:49:51;;;;;;;3.35;1.27;;;;;;;15.01;49.73;100302.94;5013073;28;20384;-94
2021/05/03 10:52:32;;;;;;;5.03;1.58;;;;;;;13.67;52.25;100316.91;5012858;28;20021;-94
2021/05/03 10:54:57;;;;;;;10.88;2.42;;;;;;;14.17;52.82;100311.84;5017123;28;20033;-92
2021/05/03 10:57:22;;;;;;;7.72;1.77;;;;;;;13.20;56.40;100319.78;5013333;28;20400;-94
2021/05/03 10:59:51;;;;;;;3.03;1.70;;;;;;;13.75;57.13;100301.28;5013495;28;20392;-93
2021/05/03 11:02:18;;;;;;;4.03;2.30;;;;;;;13.72;58.97;100296.25;5012777;28;20037;-94
2021/05/03 11:05:14;;;;;;;6.03;1.90;;;;;;;14.26;59.17;100289.94;5001135;28;20030;-93
2021/05/03 11:08:04;;;;;;;4.18;2.00;;;;;;;13.96;59.78;100276.69;4978193;28;20373;-94
2021/05/03 11:11:04;;;;;;;7.18;2.05;;;;;;;13.55;59.80;100273.91;5015194;28;20026;-93
2021/05/03 11:13:47;;;;;;;4.55;1.90;;;;;;;13.30;62.05;100269.81;5012921;28;20018;-89
2021/05/03 11:16:25;;;;;;;5.80;2.28;;;;;;;13.91;61.52;100263.88;5025898;28;20195;-89
2021/05/03 11:18:52;;;;;;;4.55;2.00;;;;;;;13.46;60.40;100253.56;5022879;28;20021;-89
2021/05/03 11:21:18;;;;;;;13.02;2.42;;;;;;;13.83;59.81;100256.59;4994995;28;20061;-88
2021/05/03 11:23:45;;;;;;;10.18;2.30;;;;;;;13.44;60.59;100247.56;5012540;28;20018;-89
2021/05/03 11:26:31;;;;;;;4.45;2.03;;;;;;;13.56;59.04;100235.16;5011952;28;20487;-89
2021/05/03 11:29:10;;;;;;;8.93;2.05;;;;;;;14.07;56.81;100234.38;5012225;28;20042;-88
2021/05/03 11:31:36;;;;;;;6.57;1.50;;;;;;;13.88;56.18;100228.03;4995843;28;20033;-88
2021/05/03 11:34:08;;;;;;;5.97;2.38;;;;;;;13.85;56.93;100216.91;5013189;28;20045;-89
2021/05/03 11:36:39;;;;;;;4.03;1.80;;;;;;;14.30;57.40;100221.84;5011375;28;20109;-89
2021/05/03 11:40:16;;;;;;;7.30;2.03;;;;;;;14.24;54.45;100210.00;5012952;28;20037;-88
2021/05/03 11:44:58;;;;;;;8.85;1.70;;;;;;;14.54;54.72;100163.41;4971812;28;20069;-86
2021/05/03 11:47:31;;;;;;;5.82;1.60;;;;;;;14.23;55.38;100173.16;5012098;28;20062;-88
2021/05/03 11:49:58;;;;;;;7.60;2.00;;;;;;;14.52;54.84;100189.13;5012089;28;20026;-88
2021/05/03 11:52:28;;;;;;;7.20;2.50;;;;;;;14.01;59.65;100168.91;5012443;28;20026;-87